sensor_id;sensor_type;location;lat;lon;timestamp;P1;durP1;ratioP1;P2;durP2;ratioP2
73699;SDS011;62005;50.082;8.988;2023-09-19T00:02:31;2.28;;;0.20;;
73699;SDS011;62005;50.082;8.988;2023-09-19T00:05:04;1.73;;;0.20;;
73699;SDS011;62005;50.082;8.988;2023-09-19T00:07:30;2.10;;;0.40;;
73699;SDS011;62005;50.082;8.988;2023-09-19T00:09:55;3.40;;;0.43;;
73699;SDS011;62005;50.082;8.988;2023-09-19T00:12:20;1.63;;;0.30;;
73699;SDS011;62005;50.082;8.988;2023-09-19T00:14:45;2.33;;;0.10;;
73699;SDS011;62005;50.082;8.988;2023-09-19T00:17:11;1.33;;;0.20;;
73699;SDS011;62005;50.082;8.988;2023-09-19T00:19:36;3.83;;;0.80;;
73699;SDS011;62005;50.082;8.988;2023-09-19T00:22:02;2.47;;;0.15;;
73699;SDS011;62005;50.082;8.988;2023-09-19T00:24:28;1.00;;;0.20;;
73699;SDS011;62005;50.082;8.988;2023-09-19T00:26:53;2.17;;;0.20;;
73699;SDS011;62005;50.082;8.988;2023-09-19T00:29:19;3.45;;;0.30;;
73699;SDS011;62005;50.082;8.988;2023-09-19T00:31:44;1.02;;;0.20;;
73699;SDS011;62005;50.082;8.988;2023-09-19T00:34:10;3.50;;;0.40;;
73699;SDS011;62005;50.082;8.988;2023-09-19T00:36:37;2.53;;;0.30;;
73699;SDS011;62005;50.082;8.988;2023-09-19T00:39:05;1.05;;;0.10;;
73699;SDS011;62005;50.082;8.988;2023-09-19T00:41:34;2.80;;;0.20;;
73699;SDS011;62005;50.082;8.988;2023-09-19T00:44:01;1.52;;;0.15;;
73699;SDS011;62005;50.082;8.988;2023-09-19T00:46:27;1.20;;;0.50;;
73699;SDS011;62005;50.082;8.988;2023-09-19T00:48:52;0.90;;;0.13;;
73699;SDS011;62005;50.082;8.988;2023-09-19T00:51:18;2.00;;;0.40;;
73699;SDS011;62005;50.082;8.988;2023-09-19T00:53:48;0.98;;;0.30;;
73699;SDS011;62005;50.082;8.988;2023-09-19T00:56:14;0.80;;;0.17;;
73699;SDS011;62005;50.082;8.988;2023-09-19T01:01:42;1.00;;;0.43;;
73699;SDS011;62005;50.082;8.988;2023-09-19T01:04:10;2.90;;;0.28;;
73699;SDS011;62005;50.082;8.988;2023-09-19T01:06:36;0.93;;;0.17;;
73699;SDS011;62005;50.082;8.988;2023-09-19T01:09:01;1.00;;;0.20;;
73699;SDS011;62005;50.082;8.988;2023-09-19T01:11:32;1.98;;;0.10;;
73699;SDS011;62005;50.082;8.988;2023-09-19T01:14:05;2.47;;;0.45;;
73699;SDS011;62005;50.082;8.988;2023-09-19T01:16:42;1.13;;;0.40;;
73699;SDS011;62005;50.082;8.988;2023-09-19T01:21:55;2.28;;;0.63;;
73699;SDS011;62005;50.082;8.988;2023-09-19T01:24:31;3.53;;;0.52;;
73699;SDS011;62005;50.082;8.988;2023-09-19T01:29:48;0.68;;;0.20;;
73699;SDS011;62005;50.082;8.988;2023-09-19T01:32:16;3.25;;;0.30;;
73699;SDS011;62005;50.082;8.988;2023-09-19T01:34:45;2.15;;;0.10;;
73699;SDS011;62005;50.082;8.988;2023-09-19T01:37:13;1.38;;;0.20;;
73699;SDS011;62005;50.082;8.988;2023-09-19T01:39:48;1.05;;;0.25;;
73699;SDS011;62005;50.082;8.988;2023-09-19T01:42:18;0.98;;;0.30;;
73699;SDS011;62005;50.082;8.988;2023-09-19T01:47:19;1.73;;;0.27;;
73699;SDS011;62005;50.082;8.988;2023-09-19T01:49:55;1.73;;;0.30;;
73699;SDS011;62005;50.082;8.988;2023-09-19T01:52:22;2.08;;;0.40;;
73699;SDS011;62005;50.082;8.988;2023-09-19T01:54:50;2.17;;;0.20;;
73699;SDS011;62005;50.082;8.988;2023-09-19T01:57:27;4.97;;;0.30;;
73699;SDS011;62005;50.082;8.988;2023-09-19T02:00:04;2.03;;;0.22;;
73699;SDS011;62005;50.082;8.988;2023-09-19T02:02:33;1.40;;;0.20;;
73699;SDS011;62005;50.082;8.988;2023-09-19T02:05:02;1.05;;;0.20;;
73699;SDS011;62005;50.082;8.988;2023-09-19T02:07:29;1.25;;;0.38;;
73699;SDS011;62005;50.082;8.988;2023-09-19T02:09:56;1.27;;;0.30;;
73699;SDS011;62005;50.082;8.988;2023-09-19T02:12:22;1.70;;;0.43;;
73699;SDS011;62005;50.082;8.988;2023-09-19T02:15:16;1.52;;;0.28;;
73699;SDS011;62005;50.082;8.988;2023-09-19T02:20:24;1.83;;;0.50;;
73699;SDS011;62005;50.082;8.988;2023-09-19T02:25:25;2.17;;;0.43;;
73699;SDS011;62005;50.082;8.988;2023-09-19T02:27:52;1.05;;;0.20;;
73699;SDS011;62005;50.082;8.988;2023-09-19T02:30:19;1.70;;;0.40;;
73699;SDS011;62005;50.082;8.988;2023-09-19T02:32:48;1.13;;;0.30;;
73699;SDS011;62005;50.082;8.988;2023-09-19T02:35:14;1.55;;;0.40;;
73699;SDS011;62005;50.082;8.988;2023-09-19T02:37:41;1.60;;;0.35;;
73699;SDS011;62005;50.082;8.988;2023-09-19T02:40:06;1.83;;;0.30;;
73699;SDS011;62005;50.082;8.988;2023-09-19T02:42:43;1.02;;;0.30;;
73699;SDS011;62005;50.082;8.988;2023-09-19T02:45:13;2.25;;;0.70;;
73699;SDS011;62005;50.082;8.988;2023-09-19T02:47:39;2.17;;;0.53;;
73699;SDS011;62005;50.082;8.988;2023-09-19T02:50:05;2.65;;;0.57;;
73699;SDS011;62005;50.082;8.988;2023-09-19T02:52:30;2.10;;;0.50;;
73699;SDS011;62005;50.082;8.988;2023-09-19T02:54:55;2.43;;;0.57;;
73699;SDS011;62005;50.082;8.988;2023-09-19T02:57:21;2.50;;;0.60;;
73699;SDS011;62005;50.082;8.988;2023-09-19T02:59:46;2.60;;;0.68;;
73699;SDS011;62005;50.082;8.988;2023-09-19T03:02:12;2.78;;;0.38;;
73699;SDS011;62005;50.082;8.988;2023-09-19T03:04:37;2.27;;;0.80;;
73699;SDS011;62005;50.082;8.988;2023-09-19T03:07:02;1.87;;;0.77;;
73699;SDS011;62005;50.082;8.988;2023-09-19T03:09:29;4.30;;;0.75;;
73699;SDS011;62005;50.082;8.988;2023-09-19T03:11:54;4.05;;;0.70;;
73699;SDS011;62005;50.082;8.988;2023-09-19T03:14:20;2.50;;;0.67;;
73699;SDS011;62005;50.082;8.988;2023-09-19T03:16:47;1.90;;;0.47;;
73699;SDS011;62005;50.082;8.988;2023-09-19T03:19:17;2.28;;;0.40;;
73699;SDS011;62005;50.082;8.988;2023-09-19T03:21:45;3.05;;;0.75;;
73699;SDS011;62005;50.082;8.988;2023-09-19T03:24:10;1.95;;;0.57;;
73699;SDS011;62005;50.082;8.988;2023-09-19T03:26:36;1.42;;;0.50;;
73699;SDS011;62005;50.082;8.988;2023-09-19T03:29:03;2.85;;;0.65;;
73699;SDS011;62005;50.082;8.988;2023-09-19T03:31:31;2.22;;;0.40;;
73699;SDS011;62005;50.082;8.988;2023-09-19T03:33:59;2.08;;;0.40;;
73699;SDS011;62005;50.082;8.988;2023-09-19T03:36:24;3.83;;;0.50;;
73699;SDS011;62005;50.082;8.988;2023-09-19T03:38:50;1.40;;;0.30;;
73699;SDS011;62005;50.082;8.988;2023-09-19T03:41:15;2.10;;;0.50;;
73699;SDS011;62005;50.082;8.988;2023-09-19T03:43:42;1.10;;;0.20;;
73699;SDS011;62005;50.082;8.988;2023-09-19T03:46:07;1.40;;;0.40;;
73699;SDS011;62005;50.082;8.988;2023-09-19T03:48:32;2.37;;;0.47;;
73699;SDS011;62005;50.082;8.988;2023-09-19T03:50:58;2.10;;;0.70;;
73699;SDS011;62005;50.082;8.988;2023-09-19T03:53:23;2.60;;;0.22;;
73699;SDS011;62005;50.082;8.988;2023-09-19T03:55:49;2.63;;;0.50;;
73699;SDS011;62005;50.082;8.988;2023-09-19T03:58:15;4.32;;;0.80;;
73699;SDS011;62005;50.082;8.988;2023-09-19T04:00:40;1.77;;;0.40;;
73699;SDS011;62005;50.082;8.988;2023-09-19T04:03:05;1.33;;;0.57;;
73699;SDS011;62005;50.082;8.988;2023-09-19T04:05:31;2.72;;;0.50;;
73699;SDS011;62005;50.082;8.988;2023-09-19T04:07:56;2.37;;;0.47;;
73699;SDS011;62005;50.082;8.988;2023-09-19T04:10:21;1.70;;;0.53;;
73699;SDS011;62005;50.082;8.988;2023-09-19T04:12:50;3.93;;;0.73;;
73699;SDS011;62005;50.082;8.988;2023-09-19T04:15:18;1.60;;;0.57;;
73699;SDS011;62005;50.082;8.988;2023-09-19T04:17:51;3.28;;;0.50;;
73699;SDS011;62005;50.082;8.988;2023-09-19T04:20:17;2.58;;;0.60;;
73699;SDS011;62005;50.082;8.988;2023-09-19T04:22:42;2.55;;;0.65;;
73699;SDS011;62005;50.082;8.988;2023-09-19T04:25:08;2.03;;;0.50;;
73699;SDS011;62005;50.082;8.988;2023-09-19T04:27:33;2.70;;;0.50;;
73699;SDS011;62005;50.082;8.988;2023-09-19T04:29:58;3.63;;;0.77;;
73699;SDS011;62005;50.082;8.988;2023-09-19T04:32:29;2.72;;;0.50;;
73699;SDS011;62005;50.082;8.988;2023-09-19T04:34:54;2.78;;;0.95;;
73699;SDS011;62005;50.082;8.988;2023-09-19T04:37:24;2.97;;;0.60;;
73699;SDS011;62005;50.082;8.988;2023-09-19T04:39:49;1.50;;;0.57;;
73699;SDS011;62005;50.082;8.988;2023-09-19T04:42:15;1.63;;;0.50;;
73699;SDS011;62005;50.082;8.988;2023-09-19T04:44:40;2.57;;;0.80;;
73699;SDS011;62005;50.082;8.988;2023-09-19T04:47:14;3.50;;;0.55;;
73699;SDS011;62005;50.082;8.988;2023-09-19T04:49:44;2.60;;;1.05;;
73699;SDS011;62005;50.082;8.988;2023-09-19T04:52:11;3.13;;;0.77;;
73699;SDS011;62005;50.082;8.988;2023-09-19T04:54:40;3.83;;;0.70;;
73699;SDS011;62005;50.082;8.988;2023-09-19T04:57:06;1.75;;;0.70;;
73699;SDS011;62005;50.082;8.988;2023-09-19T04:59:37;2.80;;;0.98;;
73699;SDS011;62005;50.082;8.988;2023-09-19T05:02:06;1.38;;;0.40;;
73699;SDS011;62005;50.082;8.988;2023-09-19T05:04:42;4.28;;;0.77;;
73699;SDS011;62005;50.082;8.988;2023-09-19T05:07:10;3.80;;;0.90;;
73699;SDS011;62005;50.082;8.988;2023-09-19T05:09:43;1.95;;;0.40;;
73699;SDS011;62005;50.082;8.988;2023-09-19T05:12:34;1.58;;;0.95;;
73699;SDS011;62005;50.082;8.988;2023-09-19T05:15:08;2.40;;;0.70;;
73699;SDS011;62005;50.082;8.988;2023-09-19T05:17:55;2.03;;;0.75;;
73699;SDS011;62005;50.082;8.988;2023-09-19T05:20:26;1.98;;;0.52;;
73699;SDS011;62005;50.082;8.988;2023-09-19T05:22:59;3.22;;;0.90;;
73699;SDS011;62005;50.082;8.988;2023-09-19T05:25:28;2.40;;;0.50;;
73699;SDS011;62005;50.082;8.988;2023-09-19T05:27:55;2.40;;;0.77;;
73699;SDS011;62005;50.082;8.988;2023-09-19T05:32:47;2.88;;;0.80;;
73699;SDS011;62005;50.082;8.988;2023-09-19T05:35:24;1.80;;;0.83;;
73699;SDS011;62005;50.082;8.988;2023-09-19T05:38:01;3.75;;;0.65;;
73699;SDS011;62005;50.082;8.988;2023-09-19T05:40:45;4.13;;;1.10;;
73699;SDS011;62005;50.082;8.988;2023-09-19T05:43:11;3.22;;;0.90;;
73699;SDS011;62005;50.082;8.988;2023-09-19T05:45:36;4.40;;;0.77;;
73699;SDS011;62005;50.082;8.988;2023-09-19T05:48:09;2.83;;;0.60;;
73699;SDS011;62005;50.082;8.988;2023-09-19T05:50:35;2.03;;;0.82;;
73699;SDS011;62005;50.082;8.988;2023-09-19T05:53:01;2.25;;;0.80;;
73699;SDS011;62005;50.082;8.988;2023-09-19T05:55:26;1.90;;;0.80;;
73699;SDS011;62005;50.082;8.988;2023-09-19T05:57:53;3.90;;;0.50;;
73699;SDS011;62005;50.082;8.988;2023-09-19T06:00:19;2.63;;;0.80;;
73699;SDS011;62005;50.082;8.988;2023-09-19T06:11:32;3.53;;;0.38;;
73699;SDS011;62005;50.082;8.988;2023-09-19T06:14:00;3.97;;;0.70;;
73699;SDS011;62005;50.082;8.988;2023-09-19T06:19:51;1.85;;;0.60;;
73699;SDS011;62005;50.082;8.988;2023-09-19T06:22:24;2.58;;;0.30;;
73699;SDS011;62005;50.082;8.988;2023-09-19T06:24:49;2.50;;;0.53;;
73699;SDS011;62005;50.082;8.988;2023-09-19T06:27:27;4.38;;;0.60;;
73699;SDS011;62005;50.082;8.988;2023-09-19T06:36:18;3.90;;;1.02;;
73699;SDS011;62005;50.082;8.988;2023-09-19T06:41:47;4.78;;;1.10;;
73699;SDS011;62005;50.082;8.988;2023-09-19T06:44:13;6.68;;;1.00;;
73699;SDS011;62005;50.082;8.988;2023-09-19T06:46:38;4.20;;;1.13;;
73699;SDS011;62005;50.082;8.988;2023-09-19T06:52:59;2.78;;;1.20;;
73699;SDS011;62005;50.082;8.988;2023-09-19T06:55:36;4.80;;;1.00;;
73699;SDS011;62005;50.082;8.988;2023-09-19T06:58:02;4.18;;;0.63;;
73699;SDS011;62005;50.082;8.988;2023-09-19T07:00:27;3.67;;;0.75;;
73699;SDS011;62005;50.082;8.988;2023-09-19T07:03:13;5.20;;;0.85;;
73699;SDS011;62005;50.082;8.988;2023-09-19T07:12:17;3.88;;;1.20;;
73699;SDS011;62005;50.082;8.988;2023-09-19T07:14:45;1.48;;;0.70;;
73699;SDS011;62005;50.082;8.988;2023-09-19T07:17:10;4.63;;;0.63;;
73699;SDS011;62005;50.082;8.988;2023-09-19T07:19:36;2.35;;;0.50;;
73699;SDS011;62005;50.082;8.988;2023-09-19T07:22:01;3.33;;;0.50;;
73699;SDS011;62005;50.082;8.988;2023-09-19T07:24:27;2.33;;;0.60;;
73699;SDS011;62005;50.082;8.988;2023-09-19T07:26:56;1.38;;;0.47;;
73699;SDS011;62005;50.082;8.988;2023-09-19T07:29:35;2.13;;;0.40;;
73699;SDS011;62005;50.082;8.988;2023-09-19T07:32:11;3.53;;;1.20;;
73699;SDS011;62005;50.082;8.988;2023-09-19T07:34:55;2.72;;;0.93;;
73699;SDS011;62005;50.082;8.988;2023-09-19T07:37:20;1.90;;;0.30;;
73699;SDS011;62005;50.082;8.988;2023-09-19T07:39:46;1.23;;;0.43;;
73699;SDS011;62005;50.082;8.988;2023-09-19T07:42:15;3.17;;;0.63;;
73699;SDS011;62005;50.082;8.988;2023-09-19T07:44:43;1.70;;;0.50;;
73699;SDS011;62005;50.082;8.988;2023-09-19T07:47:08;3.22;;;0.63;;
73699;SDS011;62005;50.082;8.988;2023-09-19T07:49:34;4.47;;;0.93;;
73699;SDS011;62005;50.082;8.988;2023-09-19T07:52:43;2.75;;;0.93;;
73699;SDS011;62005;50.082;8.988;2023-09-19T07:55:29;1.95;;;0.60;;
73699;SDS011;62005;50.082;8.988;2023-09-19T08:15:34;1.98;;;0.32;;
73699;SDS011;62005;50.082;8.988;2023-09-19T08:21:07;2.17;;;0.22;;
73699;SDS011;62005;50.082;8.988;2023-09-19T08:26:43;3.53;;;0.63;;
73699;SDS011;62005;50.082;8.988;2023-09-19T08:29:09;4.10;;;0.55;;
73699;SDS011;62005;50.082;8.988;2023-09-19T08:41:00;2.08;;;0.20;;
73699;SDS011;62005;50.082;8.988;2023-09-19T08:46:30;2.42;;;0.30;;
73699;SDS011;62005;50.082;8.988;2023-09-19T08:58:06;2.13;;;0.28;;
73699;SDS011;62005;50.082;8.988;2023-09-19T09:11:39;2.17;;;0.47;;
73699;SDS011;62005;50.082;8.988;2023-09-19T09:17:12;3.00;;;0.20;;
73699;SDS011;62005;50.082;8.988;2023-09-19T09:28:00;2.72;;;0.20;;
73699;SDS011;62005;50.082;8.988;2023-09-19T09:30:36;1.95;;;0.20;;
73699;SDS011;62005;50.082;8.988;2023-09-19T09:36:34;1.65;;;0.10;;
73699;SDS011;62005;50.082;8.988;2023-09-19T09:39:09;2.90;;;0.70;;
73699;SDS011;62005;50.082;8.988;2023-09-19T09:41:53;6.78;;;0.50;;
73699;SDS011;62005;50.082;8.988;2023-09-19T09:44:18;1.63;;;0.10;;
73699;SDS011;62005;50.082;8.988;2023-09-19T09:46:45;4.10;;;0.10;;
73699;SDS011;62005;50.082;8.988;2023-09-19T09:52:28;3.60;;;0.10;;
73699;SDS011;62005;50.082;8.988;2023-09-19T10:07:57;1.20;;;0.10;;
73699;SDS011;62005;50.082;8.988;2023-09-19T10:40:52;2.35;;;0.35;;
73699;SDS011;62005;50.082;8.988;2023-09-19T10:43:26;2.55;;;0.25;;
73699;SDS011;62005;50.082;8.988;2023-09-19T10:46:14;1.85;;;0.22;;
73699;SDS011;62005;50.082;8.988;2023-09-19T10:52:19;3.40;;;0.28;;
73699;SDS011;62005;50.082;8.988;2023-09-19T10:58:07;3.38;;;0.47;;
73699;SDS011;62005;50.082;8.988;2023-09-19T11:04:20;3.67;;;0.20;;
73699;SDS011;62005;50.082;8.988;2023-09-19T11:07:09;3.50;;;0.40;;
73699;SDS011;62005;50.082;8.988;2023-09-19T11:12:54;4.55;;;0.20;;
73699;SDS011;62005;50.082;8.988;2023-09-19T11:27:13;2.13;;;0.30;;
73699;SDS011;62005;50.082;8.988;2023-09-19T11:41:46;2.53;;;0.30;;
73699;SDS011;62005;50.082;8.988;2023-09-19T11:46:52;4.05;;;0.25;;
73699;SDS011;62005;50.082;8.988;2023-09-19T11:49:18;3.00;;;0.17;;
73699;SDS011;62005;50.082;8.988;2023-09-19T11:54:47;4.18;;;0.17;;
73699;SDS011;62005;50.082;8.988;2023-09-19T11:57:21;3.10;;;0.20;;
73699;SDS011;62005;50.082;8.988;2023-09-19T11:59:47;5.43;;;0.20;;
73699;SDS011;62005;50.082;8.988;2023-09-19T12:07:23;2.72;;;0.13;;
73699;SDS011;62005;50.082;8.988;2023-09-19T12:10:02;2.60;;;0.20;;
73699;SDS011;62005;50.082;8.988;2023-09-19T12:12:48;3.78;;;0.22;;
73699;SDS011;62005;50.082;8.988;2023-09-19T12:18:30;2.33;;;0.32;;
73699;SDS011;62005;50.082;8.988;2023-09-19T12:23:44;2.90;;;0.25;;
73699;SDS011;62005;50.082;8.988;2023-09-19T12:26:37;3.45;;;0.20;;
73699;SDS011;62005;50.082;8.988;2023-09-19T12:32:03;3.47;;;0.30;;
73699;SDS011;62005;50.082;8.988;2023-09-19T12:34:29;5.63;;;0.30;;
73699;SDS011;62005;50.082;8.988;2023-09-19T12:37:14;5.28;;;0.40;;
73699;SDS011;62005;50.082;8.988;2023-09-19T12:39:47;4.05;;;0.20;;
73699;SDS011;62005;50.082;8.988;2023-09-19T12:51:42;5.15;;;0.30;;
73699;SDS011;62005;50.082;8.988;2023-09-19T12:54:15;3.13;;;0.20;;
73699;SDS011;62005;50.082;8.988;2023-09-19T12:56:45;3.88;;;0.30;;
73699;SDS011;62005;50.082;8.988;2023-09-19T12:59:14;2.45;;;0.45;;
73699;SDS011;62005;50.082;8.988;2023-09-19T13:01:40;5.32;;;0.40;;
73699;SDS011;62005;50.082;8.988;2023-09-19T13:07:43;3.55;;;0.40;;
73699;SDS011;62005;50.082;8.988;2023-09-19T13:10:14;5.15;;;0.25;;
73699;SDS011;62005;50.082;8.988;2023-09-19T13:12:41;1.42;;;0.10;;
73699;SDS011;62005;50.082;8.988;2023-09-19T13:15:12;3.15;;;0.13;;
73699;SDS011;62005;50.082;8.988;2023-09-19T13:17:49;2.75;;;0.20;;
73699;SDS011;62005;50.082;8.988;2023-09-19T13:20:24;4.03;;;0.20;;
73699;SDS011;62005;50.082;8.988;2023-09-19T13:28:31;1.80;;;0.10;;
73699;SDS011;62005;50.082;8.988;2023-09-19T13:37:07;2.67;;;0.10;;
73699;SDS011;62005;50.082;8.988;2023-09-19T13:39:41;3.42;;;0.20;;
73699;SDS011;62005;50.082;8.988;2023-09-19T13:42:12;2.85;;;0.10;;
73699;SDS011;62005;50.082;8.988;2023-09-19T13:44:37;2.47;;;0.20;;
73699;SDS011;62005;50.082;8.988;2023-09-19T13:47:03;0.98;;;0.13;;
73699;SDS011;62005;50.082;8.988;2023-09-19T13:49:34;3.17;;;0.20;;
73699;SDS011;62005;50.082;8.988;2023-09-19T13:52:00;3.10;;;0.10;;
73699;SDS011;62005;50.082;8.988;2023-09-19T13:54:26;1.58;;;0.10;;
73699;SDS011;62005;50.082;8.988;2023-09-19T13:56:51;3.13;;;0.20;;
73699;SDS011;62005;50.082;8.988;2023-09-19T13:59:17;4.43;;;0.10;;
73699;SDS011;62005;50.082;8.988;2023-09-19T14:01:42;2.43;;;0.57;;
73699;SDS011;62005;50.082;8.988;2023-09-19T14:04:23;1.87;;;0.20;;
73699;SDS011;62005;50.082;8.988;2023-09-19T14:06:54;1.90;;;0.13;;
73699;SDS011;62005;50.082;8.988;2023-09-19T14:09:33;2.67;;;0.20;;
73699;SDS011;62005;50.082;8.988;2023-09-19T14:11:58;2.95;;;0.10;;
73699;SDS011;62005;50.082;8.988;2023-09-19T14:14:24;3.97;;;0.20;;
73699;SDS011;62005;50.082;8.988;2023-09-19T14:22:45;3.30;;;0.13;;
73699;SDS011;62005;50.082;8.988;2023-09-19T14:25:25;1.70;;;0.10;;
73699;SDS011;62005;50.082;8.988;2023-09-19T14:31:08;2.55;;;0.10;;
73699;SDS011;62005;50.082;8.988;2023-09-19T14:36:14;2.15;;;0.13;;
73699;SDS011;62005;50.082;8.988;2023-09-19T14:38:39;2.20;;;0.10;;
73699;SDS011;62005;50.082;8.988;2023-09-19T14:41:05;3.07;;;0.20;;
73699;SDS011;62005;50.082;8.988;2023-09-19T14:43:33;3.58;;;0.20;;
73699;SDS011;62005;50.082;8.988;2023-09-19T14:46:37;3.80;;;0.13;;
73699;SDS011;62005;50.082;8.988;2023-09-19T14:49:05;3.63;;;0.20;;
73699;SDS011;62005;50.082;8.988;2023-09-19T14:51:37;1.42;;;0.10;;
73699;SDS011;62005;50.082;8.988;2023-09-19T14:54:31;2.47;;;0.32;;
73699;SDS011;62005;50.082;8.988;2023-09-19T14:57:18;4.35;;;0.30;;
73699;SDS011;62005;50.082;8.988;2023-09-19T14:59:58;1.95;;;0.15;;
73699;SDS011;62005;50.082;8.988;2023-09-19T15:03:16;3.10;;;0.10;;
73699;SDS011;62005;50.082;8.988;2023-09-19T15:05:51;2.85;;;0.20;;
73699;SDS011;62005;50.082;8.988;2023-09-19T15:08:36;3.72;;;0.20;;
73699;SDS011;62005;50.082;8.988;2023-09-19T15:14:30;1.17;;;0.10;;
73699;SDS011;62005;50.082;8.988;2023-09-19T15:17:21;2.63;;;0.22;;
73699;SDS011;62005;50.082;8.988;2023-09-19T15:20:15;3.20;;;0.20;;
73699;SDS011;62005;50.082;8.988;2023-09-19T15:22:51;4.70;;;0.20;;
73699;SDS011;62005;50.082;8.988;2023-09-19T15:28:22;2.17;;;0.10;;
73699;SDS011;62005;50.082;8.988;2023-09-19T15:30:56;3.13;;;0.27;;
73699;SDS011;62005;50.082;8.988;2023-09-19T15:39:19;2.10;;;0.40;;
73699;SDS011;62005;50.082;8.988;2023-09-19T15:41:47;0.70;;;0.00;;
73699;SDS011;62005;50.082;8.988;2023-09-19T15:44:36;1.95;;;0.10;;
73699;SDS011;62005;50.082;8.988;2023-09-19T15:50:28;1.52;;;0.20;;
73699;SDS011;62005;50.082;8.988;2023-09-19T16:10:34;1.77;;;0.10;;
73699;SDS011;62005;50.082;8.988;2023-09-19T16:19:38;4.00;;;0.10;;
73699;SDS011;62005;50.082;8.988;2023-09-19T16:22:03;1.58;;;0.15;;
73699;SDS011;62005;50.082;8.988;2023-09-19T16:27:26;1.80;;;0.10;;
73699;SDS011;62005;50.082;8.988;2023-09-19T16:29:51;1.80;;;0.10;;
73699;SDS011;62005;50.082;8.988;2023-09-19T16:32:16;1.47;;;0.10;;
73699;SDS011;62005;50.082;8.988;2023-09-19T16:34:42;0.97;;;0.00;;
73699;SDS011;62005;50.082;8.988;2023-09-19T16:37:07;2.80;;;0.20;;
73699;SDS011;62005;50.082;8.988;2023-09-19T16:39:32;2.20;;;0.10;;
73699;SDS011;62005;50.082;8.988;2023-09-19T16:44:58;1.38;;;0.10;;
73699;SDS011;62005;50.082;8.988;2023-09-19T16:47:24;2.63;;;0.10;;
73699;SDS011;62005;50.082;8.988;2023-09-19T16:49:52;3.60;;;0.30;;
73699;SDS011;62005;50.082;8.988;2023-09-19T17:01:36;1.05;;;0.10;;
73699;SDS011;62005;50.082;8.988;2023-09-19T17:10:02;1.23;;;0.10;;
73699;SDS011;62005;50.082;8.988;2023-09-19T17:18:09;2.42;;;0.30;;
73699;SDS011;62005;50.082;8.988;2023-09-19T17:20:44;1.15;;;0.15;;
73699;SDS011;62005;50.082;8.988;2023-09-19T17:23:10;2.90;;;0.20;;
73699;SDS011;62005;50.082;8.988;2023-09-19T17:25:47;1.10;;;0.10;;
73699;SDS011;62005;50.082;8.988;2023-09-19T17:28:13;4.53;;;0.30;;
73699;SDS011;62005;50.082;8.988;2023-09-19T17:30:39;2.25;;;0.22;;
73699;SDS011;62005;50.082;8.988;2023-09-19T17:36:10;2.53;;;0.20;;
73699;SDS011;62005;50.082;8.988;2023-09-19T17:38:38;2.05;;;0.10;;
73699;SDS011;62005;50.082;8.988;2023-09-19T17:41:04;2.72;;;0.22;;
73699;SDS011;62005;50.082;8.988;2023-09-19T17:43:36;1.10;;;0.10;;
73699;SDS011;62005;50.082;8.988;2023-09-19T17:48:58;1.45;;;0.10;;
73699;SDS011;62005;50.082;8.988;2023-09-19T17:51:32;1.58;;;0.10;;
73699;SDS011;62005;50.082;8.988;2023-09-19T17:57:29;1.02;;;0.15;;
73699;SDS011;62005;50.082;8.988;2023-09-19T17:59:55;2.88;;;0.00;;
73699;SDS011;62005;50.082;8.988;2023-09-19T18:02:22;2.30;;;0.20;;
73699;SDS011;62005;50.082;8.988;2023-09-19T18:05:14;2.05;;;0.10;;
73699;SDS011;62005;50.082;8.988;2023-09-19T18:07:51;1.63;;;0.10;;
73699;SDS011;62005;50.082;8.988;2023-09-19T18:10:24;3.13;;;0.22;;
73699;SDS011;62005;50.082;8.988;2023-09-19T18:12:51;1.33;;;0.15;;
73699;SDS011;62005;50.082;8.988;2023-09-19T18:18:31;0.80;;;0.17;;
73699;SDS011;62005;50.082;8.988;2023-09-19T18:24:21;2.33;;;0.13;;
73699;SDS011;62005;50.082;8.988;2023-09-19T18:29:56;1.98;;;0.20;;
73699;SDS011;62005;50.082;8.988;2023-09-19T18:32:21;0.68;;;0.10;;
73699;SDS011;62005;50.082;8.988;2023-09-19T18:34:47;1.45;;;0.10;;
73699;SDS011;62005;50.082;8.988;2023-09-19T18:40:48;1.50;;;0.10;;
73699;SDS011;62005;50.082;8.988;2023-09-19T18:43:15;0.60;;;0.10;;
73699;SDS011;62005;50.082;8.988;2023-09-19T18:45:43;3.08;;;0.10;;
73699;SDS011;62005;50.082;8.988;2023-09-19T18:48:09;0.77;;;0.10;;
73699;SDS011;62005;50.082;8.988;2023-09-19T18:50:44;1.08;;;0.20;;
73699;SDS011;62005;50.082;8.988;2023-09-19T18:53:10;0.80;;;0.10;;
73699;SDS011;62005;50.082;8.988;2023-09-19T18:55:35;1.90;;;0.23;;
73699;SDS011;62005;50.082;8.988;2023-09-19T19:01:06;0.80;;;0.10;;
73699;SDS011;62005;50.082;8.988;2023-09-19T19:09:38;2.87;;;0.10;;
73699;SDS011;62005;50.082;8.988;2023-09-19T19:12:05;1.42;;;0.30;;
73699;SDS011;62005;50.082;8.988;2023-09-19T19:14:30;1.08;;;0.10;;
73699;SDS011;62005;50.082;8.988;2023-09-19T19:22:49;2.17;;;0.13;;
73699;SDS011;62005;50.082;8.988;2023-09-19T19:28:21;2.70;;;0.30;;
73699;SDS011;62005;50.082;8.988;2023-09-19T19:30:46;0.83;;;0.20;;
73699;SDS011;62005;50.082;8.988;2023-09-19T19:33:14;0.68;;;0.00;;
73699;SDS011;62005;50.082;8.988;2023-09-19T19:44:25;1.55;;;0.20;;
73699;SDS011;62005;50.082;8.988;2023-09-19T19:52:56;0.75;;;0.10;;
73699;SDS011;62005;50.082;8.988;2023-09-19T19:55:22;1.35;;;0.10;;
73699;SDS011;62005;50.082;8.988;2023-09-19T19:57:51;2.05;;;0.15;;
73699;SDS011;62005;50.082;8.988;2023-09-19T20:03:19;2.78;;;0.20;;
73699;SDS011;62005;50.082;8.988;2023-09-19T20:05:45;2.10;;;0.63;;
73699;SDS011;62005;50.082;8.988;2023-09-19T20:08:19;2.95;;;0.40;;
73699;SDS011;62005;50.082;8.988;2023-09-19T20:11:10;2.17;;;0.20;;
73699;SDS011;62005;50.082;8.988;2023-09-19T20:16:46;1.77;;;0.30;;
73699;SDS011;62005;50.082;8.988;2023-09-19T20:19:21;1.52;;;0.20;;
73699;SDS011;62005;50.082;8.988;2023-09-19T20:25:14;2.05;;;0.17;;
73699;SDS011;62005;50.082;8.988;2023-09-19T20:30:55;1.45;;;0.20;;
73699;SDS011;62005;50.082;8.988;2023-09-19T20:33:39;0.95;;;0.10;;
73699;SDS011;62005;50.082;8.988;2023-09-19T20:39:28;1.20;;;0.13;;
73699;SDS011;62005;50.082;8.988;2023-09-19T20:41:54;1.52;;;0.20;;
73699;SDS011;62005;50.082;8.988;2023-09-19T20:44:40;1.45;;;0.20;;
73699;SDS011;62005;50.082;8.988;2023-09-19T20:47:05;0.90;;;0.20;;
73699;SDS011;62005;50.082;8.988;2023-09-19T20:52:43;1.95;;;0.82;;
73699;SDS011;62005;50.082;8.988;2023-09-19T21:03:16;1.20;;;0.22;;
73699;SDS011;62005;50.082;8.988;2023-09-19T21:21:25;3.63;;;0.20;;
73699;SDS011;62005;50.082;8.988;2023-09-19T21:30:07;1.13;;;0.30;;
73699;SDS011;62005;50.082;8.988;2023-09-19T21:55:48;1.05;;;0.50;;
73699;SDS011;62005;50.082;8.988;2023-09-19T21:58:14;2.33;;;0.20;;
73699;SDS011;62005;50.082;8.988;2023-09-19T22:00:40;1.33;;;0.30;;
73699;SDS011;62005;50.082;8.988;2023-09-19T22:03:10;2.15;;;0.30;;
73699;SDS011;62005;50.082;8.988;2023-09-19T22:05:49;2.13;;;0.40;;
73699;SDS011;62005;50.082;8.988;2023-09-19T22:11:28;1.02;;;0.20;;
73699;SDS011;62005;50.082;8.988;2023-09-19T22:13:54;1.70;;;0.10;;
73699;SDS011;62005;50.082;8.988;2023-09-19T22:16:24;1.70;;;0.10;;
73699;SDS011;62005;50.082;8.988;2023-09-19T22:22:29;0.98;;;0.13;;
73699;SDS011;62005;50.082;8.988;2023-09-19T22:24:57;1.52;;;0.22;;
73699;SDS011;62005;50.082;8.988;2023-09-19T22:27:28;3.00;;;0.22;;
73699;SDS011;62005;50.082;8.988;2023-09-19T22:30:02;1.27;;;0.22;;
73699;SDS011;62005;50.082;8.988;2023-09-19T22:32:46;2.97;;;0.13;;
73699;SDS011;62005;50.082;8.988;2023-09-19T22:35:11;1.52;;;0.20;;
73699;SDS011;62005;50.082;8.988;2023-09-19T22:37:37;1.50;;;0.20;;
73699;SDS011;62005;50.082;8.988;2023-09-19T22:40:05;3.40;;;0.20;;
73699;SDS011;62005;50.082;8.988;2023-09-19T22:42:45;1.42;;;0.20;;
73699;SDS011;62005;50.082;8.988;2023-09-19T22:48:37;0.98;;;0.30;;
73699;SDS011;62005;50.082;8.988;2023-09-19T22:51:03;1.02;;;0.10;;
73699;SDS011;62005;50.082;8.988;2023-09-19T22:53:42;1.35;;;0.25;;